sensor_id;sensor_type;location;lat;lon;timestamp;pressure;altitude;pressure_sealevel;temperature;humidity
67987;BME280;54767;53.800;15.956;2022-08-07T00:01:17;101255.92;;;13.49;59.34
67987;BME280;54767;53.800;15.956;2022-08-07T00:04:05;101252.75;;;13.49;59.30
67987;BME280;54767;53.800;15.956;2022-08-07T00:06:38;101255.39;;;13.48;59.42
67987;BME280;54767;53.800;15.956;2022-08-07T00:09:20;101251.35;;;13.48;59.32
67987;BME280;54767;53.800;15.956;2022-08-07T00:11:50;101255.90;;;13.47;59.34
67987;BME280;54767;53.800;15.956;2022-08-07T00:14:26;101256.06;;;13.45;59.48
67987;BME280;54767;53.800;15.956;2022-08-07T00:16:59;101259.04;;;13.43;59.59
67987;BME280;54767;53.800;15.956;2022-08-07T00:19:30;101258.67;;;13.40;59.59
67987;BME280;54767;53.800;15.956;2022-08-07T00:22:19;101256.02;;;13.36;59.60
67987;BME280;54767;53.800;15.956;2022-08-07T00:25:06;101261.24;;;13.31;59.71
67987;BME280;54767;53.800;15.956;2022-08-07T00:27:44;101263.34;;;13.28;59.84
67987;BME280;54767;53.800;15.956;2022-08-07T00:30:23;101266.63;;;13.24;59.81
67987;BME280;54767;53.800;15.956;2022-08-07T00:32:56;101265.89;;;13.21;59.84
67987;BME280;54767;53.800;15.956;2022-08-07T00:35:26;101271.14;;;13.19;59.91
67987;BME280;54767;53.800;15.956;2022-08-07T00:37:58;101272.71;;;13.17;60.00
67987;BME280;54767;53.800;15.956;2022-08-07T00:40:28;101267.77;;;13.15;60.10
67987;BME280;54767;53.800;15.956;2022-08-07T00:43:09;101269.89;;;13.16;60.19
67987;BME280;54767;53.800;15.956;2022-08-07T00:45:59;101274.46;;;13.17;60.11
67987;BME280;54767;53.800;15.956;2022-08-07T00:48:29;101270.77;;;13.16;60.10
67987;BME280;54767;53.800;15.956;2022-08-07T00:51:00;101269.54;;;13.16;60.34
67987;BME280;54767;53.800;15.956;2022-08-07T00:53:29;101266.54;;;13.14;60.28
67987;BME280;54767;53.800;15.956;2022-08-07T00:56:17;101265.83;;;13.14;60.39
67987;BME280;54767;53.800;15.956;2022-08-07T00:58:46;101265.28;;;13.13;60.44
67987;BME280;54767;53.800;15.956;2022-08-07T01:01:17;101264.40;;;13.12;60.57
67987;BME280;54767;53.800;15.956;2022-08-07T01:03:49;101263.52;;;13.11;60.71
67987;BME280;54767;53.800;15.956;2022-08-07T01:06:28;101260.54;;;13.10;60.60
67987;BME280;54767;53.800;15.956;2022-08-07T01:08:58;101259.98;;;13.08;60.66
67987;BME280;54767;53.800;15.956;2022-08-07T01:11:29;101260.14;;;13.06;60.63
67987;BME280;54767;53.800;15.956;2022-08-07T01:14:22;101259.08;;;13.04;60.64
67987;BME280;54767;53.800;15.956;2022-08-07T01:16:56;101262.41;;;13.04;60.70
67987;BME280;54767;53.800;15.956;2022-08-07T01:19:26;101261.37;;;13.05;60.59
67987;BME280;54767;53.800;15.956;2022-08-07T01:21:59;101259.60;;;13.04;60.63
67987;BME280;54767;53.800;15.956;2022-08-07T01:24:30;101257.66;;;13.04;60.57
67987;BME280;54767;53.800;15.956;2022-08-07T01:26:59;101260.30;;;13.03;60.49
67987;BME280;54767;53.800;15.956;2022-08-07T01:29:29;101259.39;;;13.01;60.57
67987;BME280;54767;53.800;15.956;2022-08-07T01:32:01;101256.55;;;12.98;60.50
67987;BME280;54767;53.800;15.956;2022-08-07T01:34:33;101254.27;;;12.96;60.63
67987;BME280;54767;53.800;15.956;2022-08-07T01:37:02;101257.40;;;12.94;60.74
67987;BME280;54767;53.800;15.956;2022-08-07T01:39:37;101257.73;;;12.92;60.64
67987;BME280;54767;53.800;15.956;2022-08-07T01:42:14;101257.71;;;12.88;60.66
67987;BME280;54767;53.800;15.956;2022-08-07T01:45:03;101259.96;;;12.85;60.73
67987;BME280;54767;53.800;15.956;2022-08-07T01:47:42;101256.41;;;12.81;60.82
67987;BME280;54767;53.800;15.956;2022-08-07T01:50:31;101254.46;;;12.79;60.89
67987;BME280;54767;53.800;15.956;2022-08-07T01:53:05;101254.99;;;12.79;60.89
67987;BME280;54767;53.800;15.956;2022-08-07T01:55:38;101256.40;;;12.80;61.01
67987;BME280;54767;53.800;15.956;2022-08-07T01:58:11;101258.20;;;12.82;61.06
67987;BME280;54767;53.800;15.956;2022-08-07T02:01:00;101259.95;;;12.84;61.12
67987;BME280;54767;53.800;15.956;2022-08-07T02:03:58;101260.14;;;12.84;61.10
67987;BME280;54767;53.800;15.956;2022-08-07T02:06:30;101262.25;;;12.85;61.30
67987;BME280;54767;53.800;15.956;2022-08-07T02:09:05;101257.16;;;12.85;61.21
67987;BME280;54767;53.800;15.956;2022-08-07T02:11:44;101262.09;;;12.86;61.28
67987;BME280;54767;53.800;15.956;2022-08-07T02:14:34;101259.80;;;12.86;61.44
67987;BME280;54767;53.800;15.956;2022-08-07T02:17:09;101261.91;;;12.87;61.54
67987;BME280;54767;53.800;15.956;2022-08-07T02:19:51;101260.52;;;12.88;61.60
67987;BME280;54767;53.800;15.956;2022-08-07T02:22:38;101261.23;;;12.89;61.59
67987;BME280;54767;53.800;15.956;2022-08-07T02:25:12;101257.55;;;12.90;61.66
67987;BME280;54767;53.800;15.956;2022-08-07T02:27:46;101259.16;;;12.93;61.73
67987;BME280;54767;53.800;15.956;2022-08-07T02:30:20;101260.07;;;12.96;61.68
67987;BME280;54767;53.800;15.956;2022-08-07T02:32:50;101260.08;;;12.98;61.74
67987;BME280;54767;53.800;15.956;2022-08-07T02:35:36;101262.54;;;12.99;61.76
67987;BME280;54767;53.800;15.956;2022-08-07T02:38:29;101262.38;;;13.00;61.92
67987;BME280;54767;53.800;15.956;2022-08-07T02:40:59;101258.16;;;13.00;61.91
67987;BME280;54767;53.800;15.956;2022-08-07T02:43:33;101260.97;;;12.99;62.01
67987;BME280;54767;53.800;15.956;2022-08-07T02:46:07;101258.32;;;12.98;62.06
67987;BME280;54767;53.800;15.956;2022-08-07T02:48:38;101258.48;;;12.97;62.12
67987;BME280;54767;53.800;15.956;2022-08-07T02:51:18;101259.54;;;12.97;62.12
67987;BME280;54767;53.800;15.956;2022-08-07T02:54:09;101255.86;;;12.97;62.13
67987;BME280;54767;53.800;15.956;2022-08-07T02:56:40;101257.27;;;12.98;62.17
67987;BME280;54767;53.800;15.956;2022-08-07T02:59:13;101255.70;;;13.00;62.15
67987;BME280;54767;53.800;15.956;2022-08-07T03:01:42;101254.82;;;13.01;62.05
67987;BME280;54767;53.800;15.956;2022-08-07T03:04:20;101257.11;;;13.01;62.15
67987;BME280;54767;53.800;15.956;2022-08-07T03:06:51;101258.34;;;13.01;62.10
67987;BME280;54767;53.800;15.956;2022-08-07T03:09:22;101257.63;;;13.00;62.23
67987;BME280;54767;53.800;15.956;2022-08-07T03:12:11;101259.03;;;12.99;62.24
67987;BME280;54767;53.800;15.956;2022-08-07T03:14:58;101260.77;;;12.98;62.13
67987;BME280;54767;53.800;15.956;2022-08-07T03:17:35;101259.36;;;12.96;62.28
67987;BME280;54767;53.800;15.956;2022-08-07T03:20:22;101255.83;;;12.94;62.32
67987;BME280;54767;53.800;15.956;2022-08-07T03:22:52;101258.82;;;12.95;62.38
67987;BME280;54767;53.800;15.956;2022-08-07T03:25:27;101256.02;;;12.97;62.51
67987;BME280;54767;53.800;15.956;2022-08-07T03:28:11;101257.47;;;13.00;62.45
67987;BME280;54767;53.800;15.956;2022-08-07T03:31:02;101255.35;;;13.01;62.45
67987;BME280;54767;53.800;15.956;2022-08-07T03:33:57;101255.55;;;13.02;62.30
67987;BME280;54767;53.800;15.956;2022-08-07T03:36:28;101255.36;;;13.01;62.35
67987;BME280;54767;53.800;15.956;2022-08-07T03:39:03;101255.52;;;13.00;62.43
67987;BME280;54767;53.800;15.956;2022-08-07T03:41:36;101255.16;;;12.98;62.39
67987;BME280;54767;53.800;15.956;2022-08-07T03:44:14;101251.63;;;12.96;62.28
67987;BME280;54767;53.800;15.956;2022-08-07T03:46:49;101250.90;;;12.94;62.31
67987;BME280;54767;53.800;15.956;2022-08-07T03:49:38;101253.69;;;12.90;62.30
67987;BME280;54767;53.800;15.956;2022-08-07T03:52:08;101255.61;;;12.89;62.38
67987;BME280;54767;53.800;15.956;2022-08-07T03:54:57;101258.96;;;12.91;62.38
67987;BME280;54767;53.800;15.956;2022-08-07T03:57:35;101265.12;;;12.91;62.42
67987;BME280;54767;53.800;15.956;2022-08-07T04:00:25;101263.36;;;12.91;62.50
67987;BME280;54767;53.800;15.956;2022-08-07T04:03:00;101266.17;;;12.91;62.47
67987;BME280;54767;53.800;15.956;2022-08-07T04:05:33;101270.73;;;12.91;62.47
67987;BME280;54767;53.800;15.956;2022-08-07T04:08:10;101272.30;;;12.90;62.58
67987;BME280;54767;53.800;15.956;2022-08-07T04:10:44;101269.86;;;12.91;62.61
67987;BME280;54767;53.800;15.956;2022-08-07T04:13:33;101270.21;;;12.92;62.72
67987;BME280;54767;53.800;15.956;2022-08-07T04:16:22;101273.58;;;12.94;62.76
67987;BME280;54767;53.800;15.956;2022-08-07T04:19:00;101275.52;;;12.96;62.84
67987;BME280;54767;53.800;15.956;2022-08-07T04:21:41;101272.55;;;12.98;63.05
67987;BME280;54767;53.800;15.956;2022-08-07T04:24:27;101274.33;;;13.01;63.32
67987;BME280;54767;53.800;15.956;2022-08-07T04:27:05;101275.95;;;13.04;63.30
67987;BME280;54767;53.800;15.956;2022-08-07T04:29:47;101273.36;;;13.09;63.48
67987;BME280;54767;53.800;15.956;2022-08-07T04:32:29;101274.45;;;13.14;63.39
67987;BME280;54767;53.800;15.956;2022-08-07T04:35:06;101276.56;;;13.16;63.41
67987;BME280;54767;53.800;15.956;2022-08-07T04:37:38;101273.62;;;13.19;63.58
67987;BME280;54767;53.800;15.956;2022-08-07T04:40:27;101276.81;;;13.24;63.84
67987;BME280;54767;53.800;15.956;2022-08-07T04:42:58;101280.92;;;13.29;64.21
67987;BME280;54767;53.800;15.956;2022-08-07T04:46:08;101277.64;;;13.37;64.30
67987;BME280;54767;53.800;15.956;2022-08-07T04:49:04;101277.73;;;13.48;64.61
67987;BME280;54767;53.800;15.956;2022-08-07T04:51:55;101281.14;;;13.62;64.78
67987;BME280;54767;53.800;15.956;2022-08-07T04:54:32;101283.52;;;13.74;64.89
67987;BME280;54767;53.800;15.956;2022-08-07T04:57:30;101282.71;;;13.89;65.11
67987;BME280;54767;53.800;15.956;2022-08-07T05:00:26;101285.24;;;14.02;65.25
67987;BME280;54767;53.800;15.956;2022-08-07T05:03:25;101284.08;;;14.19;65.15
67987;BME280;54767;53.800;15.956;2022-08-07T05:06:21;101286.60;;;14.36;64.82
67987;BME280;54767;53.800;15.956;2022-08-07T05:09:02;101291.59;;;14.49;65.12
67987;BME280;54767;53.800;15.956;2022-08-07T05:11:37;101296.58;;;14.62;64.81
67987;BME280;54767;53.800;15.956;2022-08-07T05:14:31;101301.54;;;14.72;64.63
67987;BME280;54767;53.800;15.956;2022-08-07T05:17:22;101299.80;;;14.83;64.64
67987;BME280;54767;53.800;15.956;2022-08-07T05:20:18;101302.98;;;14.95;64.37
67987;BME280;54767;53.800;15.956;2022-08-07T05:22:52;101313.04;;;15.03;64.38
67987;BME280;54767;53.800;15.956;2022-08-07T05:25:22;101309.34;;;15.08;64.21
67987;BME280;54767;53.800;15.956;2022-08-07T05:28:12;101315.16;;;15.13;64.21
67987;BME280;54767;53.800;15.956;2022-08-07T05:30:52;101308.10;;;15.19;64.24
67987;BME280;54767;53.800;15.956;2022-08-07T05:33:25;101312.50;;;15.26;64.25
67987;BME280;54767;53.800;15.956;2022-08-07T05:35:55;101312.69;;;15.32;64.27
67987;BME280;54767;53.800;15.956;2022-08-07T05:38:24;101315.85;;;15.40;64.09
67987;BME280;54767;53.800;15.956;2022-08-07T05:41:15;101318.85;;;15.50;64.17
67987;BME280;54767;53.800;15.956;2022-08-07T05:43:52;101314.78;;;15.62;64.10
67987;BME280;54767;53.800;15.956;2022-08-07T05:46:40;101315.51;;;15.75;63.85
67987;BME280;54767;53.800;15.956;2022-08-07T05:49:10;101309.82;;;15.88;64.12
67987;BME280;54767;53.800;15.956;2022-08-07T05:51:45;101310.29;;;16.08;64.20
67987;BME280;54767;53.800;15.956;2022-08-07T05:54:17;101315.48;;;16.33;64.47
67987;BME280;54767;53.800;15.956;2022-08-07T05:57:07;101318.29;;;16.75;63.97
67987;BME280;54767;53.800;15.956;2022-08-07T05:59:37;101321.39;;;16.91;63.27
67987;BME280;54767;53.800;15.956;2022-08-07T06:02:27;101319.67;;;17.08;63.27
67987;BME280;54767;53.800;15.956;2022-08-07T06:05:11;101322.23;;;17.21;62.72
67987;BME280;54767;53.800;15.956;2022-08-07T06:07:43;101321.84;;;17.26;62.31
67987;BME280;54767;53.800;15.956;2022-08-07T06:10:32;101320.05;;;17.28;62.25
67987;BME280;54767;53.800;15.956;2022-08-07T06:13:00;101320.98;;;17.24;62.01
67987;BME280;54767;53.800;15.956;2022-08-07T06:15:33;101326.14;;;17.17;62.13
67987;BME280;54767;53.800;15.956;2022-08-07T06:18:11;101324.77;;;17.13;62.17
67987;BME280;54767;53.800;15.956;2022-08-07T06:20:43;101323.52;;;17.12;62.38
67987;BME280;54767;53.800;15.956;2022-08-07T06:23:32;101323.97;;;17.24;62.44
67987;BME280;54767;53.800;15.956;2022-08-07T06:26:20;101322.88;;;17.28;62.47
67987;BME280;54767;53.800;15.956;2022-08-07T06:28:56;101324.35;;;17.41;62.50
67987;BME280;54767;53.800;15.956;2022-08-07T06:31:28;101326.63;;;17.46;62.44
67987;BME280;54767;53.800;15.956;2022-08-07T06:34:16;101327.23;;;17.56;62.52
67987;BME280;54767;53.800;15.956;2022-08-07T06:36:48;101325.54;;;17.67;62.62
67987;BME280;54767;53.800;15.956;2022-08-07T06:39:20;101329.35;;;17.77;62.35
67987;BME280;54767;53.800;15.956;2022-08-07T06:42:19;101328.64;;;17.77;62.28
67987;BME280;54767;53.800;15.956;2022-08-07T06:45:09;101334.65;;;17.78;62.25
67987;BME280;54767;53.800;15.956;2022-08-07T06:47:45;101334.45;;;17.81;62.52
67987;BME280;54767;53.800;15.956;2022-08-07T06:50:25;101336.55;;;17.83;62.35
67987;BME280;54767;53.800;15.956;2022-08-07T06:52:58;101335.30;;;17.85;62.37
67987;BME280;54767;53.800;15.956;2022-08-07T06:55:32;101336.34;;;17.86;62.29
67987;BME280;54767;53.800;15.956;2022-08-07T06:58:22;101334.38;;;17.88;62.37
67987;BME280;54767;53.800;15.956;2022-08-07T07:00:55;101335.24;;;17.89;62.28
67987;BME280;54767;53.800;15.956;2022-08-07T07:03:25;101342.47;;;17.93;62.33
67987;BME280;54767;53.800;15.956;2022-08-07T07:06:13;101338.16;;;17.98;62.21
67987;BME280;54767;53.800;15.956;2022-08-07T07:08:53;101339.92;;;18.00;62.08
67987;BME280;54767;53.800;15.956;2022-08-07T07:11:24;101344.16;;;18.00;62.13
67987;BME280;54767;53.800;15.956;2022-08-07T07:14:14;101344.33;;;18.02;62.14
67987;BME280;54767;53.800;15.956;2022-08-07T07:16:50;101347.29;;;18.05;62.13
67987;BME280;54767;53.800;15.956;2022-08-07T07:19:29;101343.60;;;18.03;61.94
67987;BME280;54767;53.800;15.956;2022-08-07T07:22:20;101341.63;;;18.06;62.01
67987;BME280;54767;53.800;15.956;2022-08-07T07:25:10;101339.48;;;18.07;61.96
67987;BME280;54767;53.800;15.956;2022-08-07T07:28:36;101336.82;;;18.09;61.81
67987;BME280;54767;53.800;15.956;2022-08-07T07:31:31;101332.18;;;18.11;61.50
67987;BME280;54767;53.800;15.956;2022-08-07T07:34:16;101324.50;;;18.16;61.30
67987;BME280;54767;53.800;15.956;2022-08-07T07:36:45;101328.92;;;18.16;61.06
67987;BME280;54767;53.800;15.956;2022-08-07T07:39:22;101320.10;;;18.14;60.73
67987;BME280;54767;53.800;15.956;2022-08-07T07:42:14;101318.83;;;18.16;60.80
67987;BME280;54767;53.800;15.956;2022-08-07T07:44:47;101313.45;;;18.20;60.82
67987;BME280;54767;53.800;15.956;2022-08-07T07:47:17;101315.71;;;18.24;59.77
67987;BME280;54767;53.800;15.956;2022-08-07T07:49:51;101309.30;;;18.27;59.46
67987;BME280;54767;53.800;15.956;2022-08-07T07:52:43;101311.20;;;18.30;59.60
67987;BME280;54767;53.800;15.956;2022-08-07T07:55:17;101309.06;;;18.33;59.59
67987;BME280;54767;53.800;15.956;2022-08-07T07:57:48;101306.36;;;18.36;58.85
67987;BME280;54767;53.800;15.956;2022-08-07T08:00:21;101303.23;;;18.45;58.93
67987;BME280;54767;53.800;15.956;2022-08-07T08:03:05;101300.53;;;18.60;58.82
67987;BME280;54767;53.800;15.956;2022-08-07T08:05:37;101304.52;;;18.67;58.53
67987;BME280;54767;53.800;15.956;2022-08-07T08:08:27;101302.41;;;18.64;58.12
67987;BME280;54767;53.800;15.956;2022-08-07T08:11:05;101300.17;;;18.61;57.90
67987;BME280;54767;53.800;15.956;2022-08-07T08:13:46;101300.36;;;18.59;57.90
67987;BME280;54767;53.800;15.956;2022-08-07T08:16:28;101299.46;;;18.61;58.25
67987;BME280;54767;53.800;15.956;2022-08-07T08:19:05;101298.13;;;18.66;57.91
67987;BME280;54767;53.800;15.956;2022-08-07T08:21:48;101299.91;;;18.66;56.81
67987;BME280;54767;53.800;15.956;2022-08-07T08:24:46;101292.20;;;18.75;56.95
67987;BME280;54767;53.800;15.956;2022-08-07T08:28:04;101297.00;;;18.86;56.90
67987;BME280;54767;53.800;15.956;2022-08-07T08:30:44;101291.45;;;18.89;56.37
67987;BME280;54767;53.800;15.956;2022-08-07T08:33:29;101294.42;;;18.92;56.25
67987;BME280;54767;53.800;15.956;2022-08-07T08:36:01;101293.48;;;18.96;56.01
67987;BME280;54767;53.800;15.956;2022-08-07T08:38:34;101294.21;;;19.04;55.95
67987;BME280;54767;53.800;15.956;2022-08-07T08:44:53;101300.77;;;19.16;55.45
67987;BME280;54767;53.800;15.956;2022-08-07T08:56:02;101298.91;;;19.21;54.35
67987;BME280;54767;53.800;15.956;2022-08-07T08:58:48;101293.58;;;19.32;54.15
67987;BME280;54767;53.800;15.956;2022-08-07T09:01:30;101292.60;;;19.37;53.10
67987;BME280;54767;53.800;15.956;2022-08-07T09:04:38;101287.48;;;19.35;52.26
67987;BME280;54767;53.800;15.956;2022-08-07T09:07:43;101292.41;;;19.37;52.32
67987;BME280;54767;53.800;15.956;2022-08-07T09:13:08;101284.46;;;19.36;51.60
67987;BME280;54767;53.800;15.956;2022-08-07T09:16:06;101284.46;;;19.36;51.69
67987;BME280;54767;53.800;15.956;2022-08-07T09:22:14;101273.36;;;19.60;51.66
67987;BME280;54767;53.800;15.956;2022-08-07T09:25:26;101277.25;;;19.73;50.74
67987;BME280;54767;53.800;15.956;2022-08-07T09:28:10;101271.09;;;19.88;50.73
67987;BME280;54767;53.800;15.956;2022-08-07T09:34:19;101270.21;;;20.13;49.88
67987;BME280;54767;53.800;15.956;2022-08-07T09:37:00;101270.35;;;20.15;49.26
67987;BME280;54767;53.800;15.956;2022-08-07T09:45:24;101259.50;;;20.32;48.09
67987;BME280;54767;53.800;15.956;2022-08-07T09:54:46;101253.73;;;20.53;47.57
67987;BME280;54767;53.800;15.956;2022-08-07T10:00:16;101255.42;;;20.65;48.12
67987;BME280;54767;53.800;15.956;2022-08-07T10:06:02;101249.05;;;20.78;47.41
67987;BME280;54767;53.800;15.956;2022-08-07T10:12:11;101241.89;;;21.02;46.98
67987;BME280;54767;53.800;15.956;2022-08-07T10:18:19;101245.94;;;21.10;46.64
67987;BME280;54767;53.800;15.956;2022-08-07T10:29:59;101241.61;;;21.05;44.81
67987;BME280;54767;53.800;15.956;2022-08-07T10:39:08;101239.09;;;20.85;44.02
67987;BME280;54767;53.800;15.956;2022-08-07T10:41:56;101233.96;;;20.84;43.96
67987;BME280;54767;53.800;15.956;2022-08-07T10:44:54;101232.46;;;20.80;43.59
67987;BME280;54767;53.800;15.956;2022-08-07T10:47:32;101223.53;;;20.74;43.32
67987;BME280;54767;53.800;15.956;2022-08-07T10:50:28;101222.42;;;20.75;43.59
67987;BME280;54767;53.800;15.956;2022-08-07T10:59:14;101214.33;;;20.79;42.54
67987;BME280;54767;53.800;15.956;2022-08-07T11:01:50;101212.55;;;20.86;43.22
67987;BME280;54767;53.800;15.956;2022-08-07T11:05:11;101207.55;;;21.01;43.78
67987;BME280;54767;53.800;15.956;2022-08-07T11:10:49;101206.97;;;21.37;43.85
67987;BME280;54767;53.800;15.956;2022-08-07T11:13:31;101210.22;;;21.49;43.53
67987;BME280;54767;53.800;15.956;2022-08-07T11:16:30;101208.78;;;21.50;43.28
67987;BME280;54767;53.800;15.956;2022-08-07T11:19:25;101208.33;;;21.47;43.67
67987;BME280;54767;53.800;15.956;2022-08-07T11:22:18;101205.90;;;21.51;44.63
67987;BME280;54767;53.800;15.956;2022-08-07T11:25:15;101203.83;;;21.49;43.33
67987;BME280;54767;53.800;15.956;2022-08-07T11:42:02;101196.88;;;21.42;43.44
67987;BME280;54767;53.800;15.956;2022-08-07T11:51:27;101185.73;;;21.47;42.83
67987;BME280;54767;53.800;15.956;2022-08-07T11:54:51;101186.53;;;21.42;42.37
67987;BME280;54767;53.800;15.956;2022-08-07T12:00:44;101184.82;;;21.40;42.78
67987;BME280;54767;53.800;15.956;2022-08-07T12:06:55;101179.11;;;21.53;44.61
67987;BME280;54767;53.800;15.956;2022-08-07T12:09:41;101183.48;;;21.69;44.94
67987;BME280;54767;53.800;15.956;2022-08-07T12:12:20;101181.52;;;21.69;44.67
67987;BME280;54767;53.800;15.956;2022-08-07T12:15:03;101179.95;;;21.55;44.74
67987;BME280;54767;53.800;15.956;2022-08-07T12:17:47;101184.55;;;21.43;45.13
67987;BME280;54767;53.800;15.956;2022-08-07T12:20:34;101181.93;;;21.35;45.34
67987;BME280;54767;53.800;15.956;2022-08-07T12:25:59;101193.77;;;21.18;45.20
67987;BME280;54767;53.800;15.956;2022-08-07T12:31:57;101185.75;;;20.91;45.55
67987;BME280;54767;53.800;15.956;2022-08-07T12:34:35;101175.95;;;20.84;45.55
67987;BME280;54767;53.800;15.956;2022-08-07T12:37:09;101177.63;;;20.81;45.91
67987;BME280;54767;53.800;15.956;2022-08-07T12:39:52;101175.99;;;20.82;46.12
67987;BME280;54767;53.800;15.956;2022-08-07T12:42:26;101169.52;;;20.92;46.23
67987;BME280;54767;53.800;15.956;2022-08-07T12:45:08;101163.07;;;21.00;45.38
67987;BME280;54767;53.800;15.956;2022-08-07T12:50:43;101164.50;;;21.27;45.58
67987;BME280;54767;53.800;15.956;2022-08-07T12:55:49;101161.90;;;21.31;44.45
67987;BME280;54767;53.800;15.956;2022-08-07T12:58:37;101162.77;;;21.25;44.13
67987;BME280;54767;53.800;15.956;2022-08-07T13:04:03;101159.82;;;21.28;44.50
67987;BME280;54767;53.800;15.956;2022-08-07T13:10:19;101157.10;;;21.44;44.51
67987;BME280;54767;53.800;15.956;2022-08-07T13:13:25;101154.38;;;21.46;44.87
67987;BME280;54767;53.800;15.956;2022-08-07T13:18:57;101146.59;;;21.56;45.17
67987;BME280;54767;53.800;15.956;2022-08-07T13:21:45;101148.53;;;21.57;45.17
67987;BME280;54767;53.800;15.956;2022-08-07T13:24:39;101147.21;;;21.59;45.32
67987;BME280;54767;53.800;15.956;2022-08-07T13:27:35;101146.83;;;21.60;45.56
67987;BME280;54767;53.800;15.956;2022-08-07T13:30:26;101147.58;;;21.59;44.85
67987;BME280;54767;53.800;15.956;2022-08-07T13:33:24;101142.57;;;21.54;44.59
67987;BME280;54767;53.800;15.956;2022-08-07T13:36:20;101137.98;;;21.52;44.97
67987;BME280;54767;53.800;15.956;2022-08-07T13:39:03;101141.41;;;21.57;44.91
67987;BME280;54767;53.800;15.956;2022-08-07T13:41:55;101138.13;;;21.66;44.74
67987;BME280;54767;53.800;15.956;2022-08-07T13:44:30;101135.08;;;21.67;43.34
67987;BME280;54767;53.800;15.956;2022-08-07T13:47:04;101132.80;;;21.59;43.35
67987;BME280;54767;53.800;15.956;2022-08-07T13:49:41;101135.96;;;21.55;43.79
67987;BME280;54767;53.800;15.956;2022-08-07T13:52:30;101136.48;;;21.49;43.76
67987;BME280;54767;53.800;15.956;2022-08-07T13:55:13;101131.38;;;21.41;44.18
67987;BME280;54767;53.800;15.956;2022-08-07T13:58:04;101132.84;;;21.45;44.20
67987;BME280;54767;53.800;15.956;2022-08-07T14:00:58;101127.35;;;21.51;44.56
67987;BME280;54767;53.800;15.956;2022-08-07T14:03:38;101126.96;;;21.58;44.58
67987;BME280;54767;53.800;15.956;2022-08-07T14:06:36;101137.42;;;21.60;44.50
67987;BME280;54767;53.800;15.956;2022-08-07T14:09:07;101132.79;;;21.54;44.40
67987;BME280;54767;53.800;15.956;2022-08-07T14:12:00;101133.14;;;21.48;44.33
67987;BME280;54767;53.800;15.956;2022-08-07T14:14:43;101134.14;;;21.38;44.11
67987;BME280;54767;53.800;15.956;2022-08-07T14:17:16;101129.43;;;21.33;44.46
67987;BME280;54767;53.800;15.956;2022-08-07T14:20:18;101128.10;;;21.37;44.58
67987;BME280;54767;53.800;15.956;2022-08-07T14:23:24;101126.91;;;21.34;44.61
67987;BME280;54767;53.800;15.956;2022-08-07T14:26:22;101126.89;;;21.28;44.39
67987;BME280;54767;53.800;15.956;2022-08-07T14:29:00;101125.27;;;21.23;44.45
67987;BME280;54767;53.800;15.956;2022-08-07T14:31:50;101121.23;;;21.14;44.23
67987;BME280;54767;53.800;15.956;2022-08-07T14:34:26;101116.80;;;21.07;44.31
67987;BME280;54767;53.800;15.956;2022-08-07T14:37:02;101116.58;;;21.02;44.32
67987;BME280;54767;53.800;15.956;2022-08-07T14:39:45;101111.86;;;20.99;44.68
67987;BME280;54767;53.800;15.956;2022-08-07T14:42:35;101112.69;;;21.01;45.00
67987;BME280;54767;53.800;15.956;2022-08-07T14:45:28;101110.02;;;21.02;44.76
67987;BME280;54767;53.800;15.956;2022-08-07T14:48:21;101111.34;;;20.98;44.71
67987;BME280;54767;53.800;15.956;2022-08-07T14:50:57;101106.43;;;20.96;44.73
67987;BME280;54767;53.800;15.956;2022-08-07T14:53:36;101107.33;;;20.96;44.74
67987;BME280;54767;53.800;15.956;2022-08-07T14:56:28;101106.67;;;20.99;45.08
67987;BME280;54767;53.800;15.956;2022-08-07T14:59:03;101105.57;;;21.02;44.93
67987;BME280;54767;53.800;15.956;2022-08-07T15:01:55;101107.13;;;21.03;44.67
67987;BME280;54767;53.800;15.956;2022-08-07T15:04:25;101109.44;;;21.03;44.59
67987;BME280;54767;53.800;15.956;2022-08-07T15:06:55;101103.86;;;21.05;44.31
67987;BME280;54767;53.800;15.956;2022-08-07T15:09:28;101101.71;;;21.06;44.07
67987;BME280;54767;53.800;15.956;2022-08-07T15:12:25;101102.10;;;21.05;43.85
67987;BME280;54767;53.800;15.956;2022-08-07T15:15:04;101101.96;;;21.03;44.00
67987;BME280;54767;53.800;15.956;2022-08-07T15:18:03;101100.69;;;21.04;44.27
67987;BME280;54767;53.800;15.956;2022-08-07T15:21:02;101100.66;;;21.05;44.21
67987;BME280;54767;53.800;15.956;2022-08-07T15:23:37;101098.52;;;21.05;43.88
67987;BME280;54767;53.800;15.956;2022-08-07T15:26:36;101100.14;;;21.05;43.69
67987;BME280;54767;53.800;15.956;2022-08-07T15:29:07;101099.15;;;21.02;43.60
67987;BME280;54767;53.800;15.956;2022-08-07T15:32:00;101100.98;;;21.00;43.61
67987;BME280;54767;53.800;15.956;2022-08-07T15:34:42;101093.66;;;21.00;43.62
67987;BME280;54767;53.800;15.956;2022-08-07T15:37:33;101095.79;;;21.01;43.84
67987;BME280;54767;53.800;15.956;2022-08-07T15:40:25;101089.90;;;21.02;43.83
67987;BME280;54767;53.800;15.956;2022-08-07T15:46:25;101088.47;;;20.95;43.80
67987;BME280;54767;53.800;15.956;2022-08-07T15:49:15;101084.01;;;20.90;43.40
67987;BME280;54767;53.800;15.956;2022-08-07T15:51:46;101082.02;;;20.84;43.75
67987;BME280;54767;53.800;15.956;2022-08-07T15:54:25;101079.64;;;20.80;43.89
67987;BME280;54767;53.800;15.956;2022-08-07T15:56:56;101078.64;;;20.77;44.02
67987;BME280;54767;53.800;15.956;2022-08-07T15:59:28;101078.70;;;20.75;43.45